Terminal Aerodrome Forecast
Issued by NWS North Platte, NE

Home | Current Version | Previous Version | Text Only | Print | Product List | Glossary On
Versions: 1 2 3 4 5 6 7 8 9 10 11 12 13 14 15 16 17 18 19
000
FTUS43 KLBF 271037 AAA
TAFVTN
TAF AMD
KVTN 271037Z 2711/2806 10013KT P6SM BKN200
     FM272000 03012KT P6SM SCT100 BKN200
      TEMPO 2722/2802 5SM -TSRA BKN070CB
     FM280200 34009KT P6SM SCT030 BKN050=

USA.gov is the U.S. government's official web portal to all federal, state and local government web resources and services.